Tuesday, July 29, 2014
23:02 UTC
  |  Log In   |  Register Free
Airport Search:

Madison Airport
(I39)

Madison Airport Diagram
No Airport Diagram Available

FAA data valid effective July 24, 2014 until September 18, 2014 (unless otherwise noted).

 
 
 
 
 
 
 
 
 
 
 
 
 
 

Current Aviation Weather for Madison Airport (I39)

The most recent METAR observation for KDVK was updated at: 1835 UTC
METAR Summary (Translated METAR)
KDVK
281835Z AUTO 33008KT 10SM SCT032 BKN042 BKN050 23/16 A3000 RMK AO2
KLEX
(28.6 nm NE from KDVK)
281844Z 31009KT 10SM FEW022 SCT028 OVC055 22/15 A3000 RMK AO2 T02170150
TAF Summary (Translated TAF)
KLEX
(28.6 nm NE from KDVK)
291731Z 2918/3018 31007KT P6SM SCT035 FM300000 VRB03KT P6SM FEW250 FM300900 VRB03KT 5SM BR SKC FM301400 28005KT P6SM SCT040
KSME
(32.3 nm SE from KDVK)
291729Z 2918/3018 33007KT P6SM BKN040 FM300100 VRB03KT P6SM SCT040 FM300730 00000KT 3SM BR SCT040 FM300900 00000KT 1SM BR SCT008 FM301300 VRB05KT P6SM BKN040
  Airport Weather Conditions for I39

Current weather conditions are
not available for I39


The nearest NOAA weather station
is at DVK, (21 nm SW from I39)
  
 Current Weather at DVK
72° F
Partly Cloudy
North winds at 9.2 mph
DVK NOAA Radar

Pressure: 30.10 in
Humidity: 50%
Wind: North at 9.2 MPH (8 KT)
Dew Point: 51.8°F
Visibility: 10.00 mi


Airport Weather Forecast for I39

Translated METAR and TAF for KDVK
Translated METAR for KDVK (2256 UTC 29 July 2014)
found at http://aviationweather.gov/adds/metars/
 
METAR text: KDVK 292235Z AUTO 33005KT 10SM CLR 21/12 A3009 RMK AO2
Conditions at: KDVK (DANVILLE , KY, US) observed 2235 UTC 29 July 2014
Temperature: 21.0°C (70°F)
Dewpoint: 12.0°C (54°F) [RH = 56%]
Pressure (altimeter): 30.09 inches Hg (1019.0 mb)
Winds: from the NNW (330 degrees) at 6 MPH (5 knots; 2.6 m/s)
Visibility: 10 or more miles (16+ km)
Ceiling: at least 12,000 feet AGL
Clouds: sky clear below 12,000 feet AGL
Weather: automated observation with no human augmentation;
there may or may not be significant weather present at this time
Translated TAF for KDVK

There is no translated TAF available for this airport

Find All Airport Services Find A Hotel Find A Rental Car Find A Golf Course Find A Restaurant $100 Hamburger



FBO's on the Field
FBO Company Facility Photos Services Transportation Aviation Fuel Prices: Prices include tax
Catering Weather Repair Courtesy Rental Type 100LL JetA JetA+ MOGAS 8087
 
Eastern Kentucky University

This FBO has not yet been rated
FS:Shell
Last Updated: Jul-21
Login to update fuel prices
SS:
Contact Eastern Kentucky UniversityMore FBO Information
 
Add another FBO Facility Photos Catering Weather Repair Courtesy Rental Type 100LL JetA JetA+ MOGAS 8087
Services Transportation Aviation Fuel Prices: Prices include tax


GlobalAir.com Airport Resource Center model-print
model-print
model-print
model-print